Time;durP1;ratioP1;P1;durP2;ratioP2;P2;SDS_P1;SDS_P2;PMS_P1;PMS_P2;Temp;Humidity;BMP_temperature;BMP_pressure;BME280_temperature;BME280_humidity;BME280_pressure;Samples;Min_cycle;Max_cycle;Signal;HPM_P1;HPM_P2
2022/05/26 00:01:04;;;;;;;4.70;2.95;;;;;;;13.95;100.00;96794.06;5038183;28;20496;-53
2022/05/26 00:03:33;;;;;;;3.38;2.88;;;;;;;13.96;100.00;96796.56;5040971;28;20079;-54
2022/05/26 00:06:02;;;;;;;7.45;3.22;;;;;;;13.76;100.00;96797.75;5040989;28;20542;-56
2022/05/26 00:08:30;;;;;;;4.22;3.20;;;;;;;13.92;100.00;96802.34;5041673;28;20067;-52
2022/05/26 00:10:58;;;;;;;3.95;2.80;;;;;;;13.90;100.00;96797.22;5041110;28;20072;-53
2022/05/26 00:13:28;;;;;;;9.23;3.42;;;;;;;13.72;100.00;96791.13;5042738;28;20060;-53
2022/05/26 00:15:56;;;;;;;5.67;3.73;;;;;;;13.86;100.00;96792.38;5038346;28;20087;-51
2022/05/26 00:18:24;;;;;;;4.95;3.40;;;;;;;13.83;100.00;96792.66;5041009;28;20077;-50
2022/05/26 00:20:53;;;;;;;5.68;3.10;;;;;;;13.78;100.00;96793.16;5036690;28;20083;-49
2022/05/26 00:23:21;;;;;;;5.13;2.97;;;;;;;13.70;100.00;96801.06;5039801;28;20527;-53
2022/05/26 00:25:49;;;;;;;3.80;3.17;;;;;;;13.73;100.00;96808.72;5041286;28;20065;-53
2022/05/26 00:28:18;;;;;;;2.80;2.55;;;;;;;13.86;100.00;96809.09;5041695;28;20067;-49
2022/05/26 00:30:48;;;;;;;12.55;3.20;;;;;;;13.86;100.00;96809.09;5042579;28;20096;-54
2022/05/26 00:33:17;;;;;;;;;;;;;;;13.88;100.00;96803.66;5043485;28;20068;-51
2022/05/26 00:35:45;;;;;;;2.60;2.40;;;;;;;13.76;100.00;96806.56;5041967;28;20444;-55
2022/05/26 00:38:14;;;;;;;4.20;2.90;;;;;;;13.83;100.00;96803.28;5040482;28;20064;-51
2022/05/26 00:40:44;;;;;;;4.22;2.47;;;;;;;14.02;100.00;96792.47;5033597;28;20065;-51
2022/05/26 00:43:13;;;;;;;4.10;2.53;;;;;;;13.99;100.00;96795.41;5038455;28;20076;-52
2022/05/26 00:45:45;;;;;;;3.72;2.58;;;;;;;14.08;100.00;96804.25;5043535;28;20459;-48
2022/05/26 00:48:16;;;;;;;3.10;2.78;;;;;;;14.15;100.00;96800.81;5045941;28;20068;-53
2022/05/26 00:50:47;;;;;;;6.50;2.55;;;;;;;14.24;100.00;96796.38;5040767;28;20732;-49
2022/05/26 00:53:16;;;;;;;;;;;;;;;14.01;100.00;96786.34;5042651;28;20107;-49
2022/05/26 00:55:48;;;;;;;4.35;2.67;;;;;;;13.95;100.00;96788.78;5042023;28;19967;-55
2022/05/26 00:58:21;;;;;;;3.17;2.65;;;;;;;13.98;100.00;96781.34;5041352;28;20061;-48
2022/05/26 01:00:49;;;;;;;4.28;2.70;;;;;;;13.94;100.00;96789.78;5043751;28;20080;-52
2022/05/26 01:03:23;;;;;;;3.90;2.80;;;;;;;14.06;100.00;96792.97;5040587;28;20447;-49
2022/05/26 01:05:54;;;;;;;3.00;2.70;;;;;;;13.81;100.00;96790.19;5041824;28;20069;-50
2022/05/26 01:08:26;;;;;;;3.40;2.80;;;;;;;13.95;100.00;96794.06;5042169;28;20115;-52
2022/05/26 01:10:54;;;;;;;4.00;2.83;;;;;;;14.00;100.00;96791.78;5041458;28;20064;-52
2022/05/26 01:13:23;;;;;;;4.47;2.92;;;;;;;14.04;100.00;96790.50;5036245;28;20052;-52
2022/05/26 01:15:56;;;;;;;3.40;3.10;;;;;;;13.89;100.00;96787.56;5042449;28;20088;-53
2022/05/26 01:18:34;;;;;;;3.28;2.97;;;;;;;13.71;100.00;96795.59;5039988;28;20380;-56
2022/05/26 01:21:08;;;;;;;3.53;2.90;;;;;;;13.85;100.00;96796.00;5041494;28;20048;-48
2022/05/26 01:24:21;;;;;;;4.28;3.10;;;;;;;13.92;100.00;96800.53;5039588;28;20072;-47
2022/05/26 01:27:06;;;;;;;3.75;2.80;;;;;;;13.78;100.00;96799.28;5011334;28;20098;-54
2022/05/26 01:30:02;;;;;;;5.00;3.10;;;;;;;13.62;100.00;96798.34;5039237;28;20199;-49
2022/05/26 01:32:37;;;;;;;4.95;3.10;;;;;;;13.77;100.00;96799.44;5039372;28;20065;-55
2022/05/26 01:35:12;;;;;;;7.55;3.38;;;;;;;13.56;100.00;96801.59;5035679;28;20167;-50
2022/05/26 01:37:45;;;;;;;5.38;3.17;;;;;;;13.63;100.00;96802.69;5039150;28;20075;-51
2022/05/26 01:40:21;;;;;;;3.65;3.05;;;;;;;13.64;100.00;96805.16;5040009;28;20480;-51
2022/05/26 01:42:55;;;;;;;3.58;3.10;;;;;;;13.54;100.00;96813.19;5040214;28;20080;-54
2022/05/26 01:45:31;;;;;;;4.68;3.10;;;;;;;13.48;100.00;96815.63;5043136;28;20449;-54
2022/05/26 01:48:03;;;;;;;4.35;3.30;;;;;;;13.24;100.00;96817.09;5045465;28;20069;-52
2022/05/26 01:50:38;;;;;;;3.78;3.17;;;;;;;13.30;100.00;96820.94;5041899;28;20072;-53
2022/05/26 01:53:13;;;;;;;4.22;3.40;;;;;;;13.18;100.00;96812.38;5043987;28;20064;-53
2022/05/26 01:55:46;;;;;;;4.60;3.35;;;;;;;13.18;100.00;96815.03;5044003;28;20057;-57
2022/05/26 01:58:18;;;;;;;5.40;3.45;;;;;;;13.40;100.00;96816.41;5042277;28;20534;-53
2022/05/26 02:00:46;;;;;;;4.07;3.67;;;;;;;13.38;100.00;96806.94;5043015;28;20088;-50
2022/05/26 02:03:18;;;;;;;4.10;3.70;;;;;;;13.30;100.00;96805.88;5042869;28;20069;-56
2022/05/26 02:05:51;;;;;;;3.90;3.50;;;;;;;13.33;100.00;96815.34;5044225;28;20583;-53
2022/05/26 02:08:24;;;;;;;4.13;3.67;;;;;;;13.20;100.00;96814.88;5047278;28;20069;-52
2022/05/26 02:10:56;;;;;;;4.00;3.63;;;;;;;12.96;100.00;96808.34;5048235;28;20076;-57
2022/05/26 02:13:30;;;;;;;4.00;3.58;;;;;;;12.99;100.00;96809.88;5046461;28;20519;-53
2022/05/26 02:16:05;;;;;;;9.35;3.80;;;;;;;12.93;100.00;96815.78;5041738;28;20048;-51
2022/05/26 02:18:37;;;;;;;4.30;3.83;;;;;;;12.85;100.00;96819.19;5040396;28;20076;-50
2022/05/26 02:21:08;;;;;;;4.07;3.67;;;;;;;12.89;100.00;96819.72;5038220;28;20068;-50
2022/05/26 02:23:38;;;;;;;5.20;3.88;;;;;;;12.80;100.00;96821.44;5042509;28;20090;-54
2022/05/26 02:26:07;;;;;;;5.28;3.72;;;;;;;12.83;100.00;96815.84;5044584;28;20080;-52
2022/05/26 02:31:20;;;;;;;4.95;3.90;;;;;;;12.66;100.00;96821.94;5043432;28;20443;-50
2022/05/26 02:33:50;;;;;;;6.88;4.00;;;;;;;12.73;100.00;96815.94;5042770;28;20085;-51
2022/05/26 02:36:18;;;;;;;3.92;3.63;;;;;;;12.65;100.00;96831.69;5046040;28;20076;-51
2022/05/26 02:38:47;;;;;;;4.65;3.70;;;;;;;12.59;100.00;96819.91;5041823;28;20076;-53
2022/05/26 02:41:15;;;;;;;4.57;4.07;;;;;;;12.63;100.00;96823.09;5041613;28;20091;-53
2022/05/26 02:43:44;;;;;;;7.68;3.97;;;;;;;12.75;100.00;96811.28;5041993;28;20048;-49
2022/05/26 02:46:18;;;;;;;4.10;3.80;;;;;;;12.73;100.00;96810.63;5042987;28;20095;-52
2022/05/26 02:48:59;;;;;;;5.50;4.35;;;;;;;12.72;100.00;96803.66;5041999;28;20072;-49
2022/05/26 02:51:33;;;;;;;6.10;4.03;;;;;;;12.46;100.00;96802.72;5042614;28;20395;-50
2022/05/26 02:54:09;;;;;;;4.88;4.00;;;;;;;12.55;100.00;96815.03;5041787;28;20347;-52
2022/05/26 02:56:42;;;;;;;6.00;4.15;;;;;;;12.58;100.00;96814.75;5042503;28;20083;-51
2022/05/26 02:59:16;;;;;;;6.15;4.22;;;;;;;12.48;100.00;96812.16;5042449;28;20076;-54
2022/05/26 03:01:49;;;;;;;4.70;3.97;;;;;;;12.54;100.00;96821.31;5042092;28;20057;-51
2022/05/26 03:04:21;;;;;;;4.60;4.20;;;;;;;12.65;100.00;96822.94;5040398;28;20459;-50
2022/05/26 03:06:52;;;;;;;6.03;4.03;;;;;;;12.49;100.00;96824.41;5043730;28;20088;-56
2022/05/26 03:09:22;;;;;;;6.05;4.32;;;;;;;12.45;100.00;96828.31;5041226;28;20077;-54
2022/05/26 03:11:56;;;;;;;7.32;4.20;;;;;;;12.57;100.00;96831.63;5042078;28;20507;-48
2022/05/26 03:14:26;;;;;;;5.47;4.30;;;;;;;12.53;100.00;96828.44;5044050;28;20534;-49
2022/05/26 03:16:55;;;;;;;6.18;4.07;;;;;;;12.59;100.00;96825.19;5045050;28;20071;-48
2022/05/26 03:19:25;;;;;;;4.90;4.40;;;;;;;12.53;100.00;96819.66;5042988;28;20072;-50
2022/05/26 03:21:53;;;;;;;8.70;4.10;;;;;;;12.56;100.00;96814.09;5045264;28;20079;-50
2022/05/26 03:24:21;;;;;;;4.55;4.13;;;;;;;12.65;100.00;96820.28;5041705;28;20088;-51
2022/05/26 03:26:50;;;;;;;6.13;3.90;;;;;;;12.58;100.00;96831.44;5044094;28;20110;-52
2022/05/26 03:29:18;;;;;;;5.22;4.68;;;;;;;12.37;100.00;96840.63;5045567;28;20075;-55
2022/05/26 03:31:46;;;;;;;4.95;4.55;;;;;;;12.33;100.00;96845.38;5042735;28;20181;-53
2022/05/26 03:42:34;;;;;;;6.45;4.60;;;;;;;12.20;100.00;96861.56;5042307;28;20657;-55
2022/05/26 03:45:03;;;;;;;5.03;4.53;;;;;;;12.43;100.00;96862.03;5042916;28;20065;-52
2022/05/26 03:47:31;;;;;;;4.90;4.47;;;;;;;12.55;100.00;96868.78;5041820;28;20788;-51
2022/05/26 03:49:59;;;;;;;5.57;4.63;;;;;;;12.79;100.00;96867.41;5042204;28;20091;-53
2022/05/26 03:52:29;;;;;;;6.85;5.28;;;;;;;13.47;100.00;96861.66;5043507;28;20064;-53
2022/05/26 03:54:57;;;;;;;5.10;4.67;;;;;;;14.68;100.00;96860.75;5043763;28;20064;-50
2022/05/26 03:57:27;;;;;;;6.10;4.60;;;;;;;14.93;100.00;96859.03;5041860;28;20506;-53
2022/05/26 03:59:55;;;;;;;4.40;4.10;;;;;;;15.32;100.00;96855.78;5040104;28;20082;-51
2022/05/26 04:02:24;;;;;;;4.72;4.22;;;;;;;15.20;100.00;96857.91;5041777;28;20064;-49
2022/05/26 04:04:52;;;;;;;4.78;4.07;;;;;;;15.44;100.00;96856.28;5041219;28;20234;-49
2022/05/26 04:07:20;;;;;;;4.22;3.92;;;;;;;15.23;100.00;96867.38;5042878;28;20068;-51
2022/05/26 04:09:50;;;;;;;4.70;3.70;;;;;;;14.98;100.00;96866.50;5041852;28;20083;-50
2022/05/26 04:12:19;;;;;;;6.03;3.42;;;;;;;14.20;100.00;96875.44;5040409;28;20072;-51
2022/05/26 04:14:47;;;;;;;3.88;2.75;;;;;;;14.19;100.00;96884.38;5037760;28;20093;-50
2022/05/26 04:17:16;;;;;;;3.80;3.17;;;;;;;13.50;100.00;96886.03;5043241;28;20068;-52
2022/05/26 04:19:44;;;;;;;3.17;2.90;;;;;;;13.80;100.00;96891.06;5042987;28;20087;-54
2022/05/26 04:22:16;;;;;;;4.35;3.17;;;;;;;13.64;100.00;96886.47;5044186;28;20416;-53
2022/05/26 04:24:46;;;;;;;3.90;3.60;;;;;;;13.86;100.00;96885.97;5043589;28;20068;-52
2022/05/26 04:27:17;;;;;;;4.57;3.30;;;;;;;14.05;100.00;96884.97;5038403;28;20064;-49
2022/05/26 04:29:45;;;;;;;4.35;3.05;;;;;;;13.76;100.00;96888.75;5041771;28;20068;-50
2022/05/26 04:32:14;;;;;;;4.00;3.17;;;;;;;14.11;100.00;96894.09;5043590;28;20072;-56
2022/05/26 04:34:45;;;;;;;3.88;3.38;;;;;;;13.96;100.00;96892.00;5039599;28;20083;-55
2022/05/26 04:37:13;;;;;;;4.95;3.40;;;;;;;14.82;100.00;96893.00;5041707;28;20075;-54
2022/05/26 04:39:42;;;;;;;4.40;3.65;;;;;;;14.70;100.00;96892.47;5038983;28;20466;-52
2022/05/26 04:42:10;;;;;;;5.20;4.70;;;;;;;16.33;100.00;96886.50;5041333;28;20079;-50
2022/05/26 04:44:43;;;;;;;3.00;2.70;;;;;;;16.09;100.00;96885.53;5041191;28;20075;-53
2022/05/26 04:47:13;;;;;;;6.65;3.10;;;;;;;15.11;100.00;96901.41;5040816;28;20098;-52
2022/05/26 04:49:42;;;;;;;4.63;2.85;;;;;;;15.42;100.00;96898.97;5041655;28;20064;-54
2022/05/26 04:52:12;;;;;;;4.28;3.42;;;;;;;15.23;100.00;96904.59;5042497;28;20084;-54
2022/05/26 04:54:42;;;;;;;5.13;3.20;;;;;;;14.98;100.00;96906.34;5039827;28;20089;-55
2022/05/26 04:57:11;;;;;;;;;;;;;;;14.67;100.00;96914.03;5041715;28;20067;-51
2022/05/26 04:59:41;;;;;;;7.20;3.00;;;;;;;14.88;100.00;96919.75;5041137;28;19955;-52
2022/05/26 05:02:11;;;;;;;3.35;3.05;;;;;;;14.71;100.00;96920.69;5041701;28;20076;-50
2022/05/26 05:04:41;;;;;;;4.88;3.10;;;;;;;14.76;100.00;96926.31;5039898;28;20065;-54
2022/05/26 05:07:10;;;;;;;6.88;3.40;;;;;;;14.37;100.00;96928.59;5038430;28;20469;-49
2022/05/26 05:09:39;;;;;;;3.33;3.03;;;;;;;14.57;100.00;96932.72;5038835;28;20088;-47
2022/05/26 05:12:08;;;;;;;3.75;3.20;;;;;;;14.54;100.00;96935.69;5041041;28;20060;-57
2022/05/26 05:14:43;;;;;;;6.28;3.10;;;;;;;14.91;100.00;96934.53;5035870;28;20064;-51
2022/05/26 05:17:12;;;;;;;5.28;3.15;;;;;;;14.90;100.00;96938.16;5041320;28;20130;-50
2022/05/26 05:19:40;;;;;;;4.40;3.10;;;;;;;15.18;100.00;96936.13;5037353;28;20147;-52
2022/05/26 05:22:11;;;;;;;3.50;3.13;;;;;;;15.34;100.00;96937.97;5045734;28;20068;-53
2022/05/26 05:24:43;;;;;;;4.38;3.30;;;;;;;15.28;100.00;96939.50;5043975;28;20468;-50
2022/05/26 05:27:14;;;;;;;4.85;3.22;;;;;;;15.37;100.00;96935.84;5045769;28;20044;-53
2022/05/26 05:29:44;;;;;;;4.30;3.10;;;;;;;15.56;100.00;96931.25;5043931;28;20067;-50
2022/05/26 05:32:23;;;;;;;4.20;2.95;;;;;;;15.63;100.00;96929.56;5045720;28;20105;-53
2022/05/26 05:34:56;;;;;;;4.15;3.00;;;;;;;15.91;100.00;96935.44;5040666;28;20156;-54
2022/05/26 05:37:24;;;;;;;3.45;2.78;;;;;;;15.94;100.00;96934.28;5045213;28;20064;-49
2022/05/26 05:39:52;;;;;;;3.33;2.85;;;;;;;15.93;100.00;96944.06;5045151;28;20080;-54
2022/05/26 05:42:21;;;;;;;3.08;2.78;;;;;;;15.87;100.00;96947.41;5045055;28;20079;-52
2022/05/26 05:44:51;;;;;;;4.20;3.90;;;;;;;16.51;100.00;96945.69;5046451;28;20061;-51
2022/05/26 05:47:19;;;;;;;4.30;3.40;;;;;;;17.60;100.00;96948.59;5040819;28;20037;-54
2022/05/26 05:49:48;;;;;;;5.18;3.03;;;;;;;17.59;100.00;96938.94;5045393;28;20075;-55
2022/05/26 05:52:21;;;;;;;3.45;2.20;;;;;;;17.51;100.00;96950.47;5042211;28;20060;-53
2022/05/26 05:54:50;;;;;;;4.55;2.35;;;;;;;16.91;100.00;96954.59;5043022;28;20072;-54
2022/05/26 05:57:18;;;;;;;2.67;2.35;;;;;;;17.15;100.00;96951.00;5043072;28;20072;-54
2022/05/26 05:59:46;;;;;;;2.72;2.20;;;;;;;16.96;100.00;96954.88;5045992;28;20122;-55
2022/05/26 06:02:17;;;;;;;3.28;2.45;;;;;;;16.93;100.00;96955.25;5042113;28;20072;-53
2022/05/26 06:05:01;;;;;;;2.70;2.10;;;;;;;17.09;100.00;96954.34;5045002;28;20065;-54
2022/05/26 06:07:30;;;;;;;4.05;2.40;;;;;;;17.30;100.00;96964.41;5040077;28;20459;-54
2022/05/26 06:09:58;;;;;;;2.50;2.30;;;;;;;17.09;100.00;96970.34;5046000;28;20509;-50
2022/05/26 06:12:27;;;;;;;2.97;2.10;;;;;;;16.93;100.00;96973.06;5046704;28;20744;-54
2022/05/26 06:14:55;;;;;;;3.40;2.40;;;;;;;17.17;100.00;96974.78;5042206;28;20502;-50
2022/05/26 06:17:25;;;;;;;3.53;2.50;;;;;;;17.31;100.00;96977.59;5041600;28;20069;-51
2022/05/26 06:19:53;;;;;;;4.95;2.03;;;;;;;17.88;100.00;96976.44;5044762;28;20064;-52
2022/05/26 06:22:24;;;;;;;3.33;2.28;;;;;;;17.58;100.00;96977.25;5040285;28;20068;-52
2022/05/26 06:24:52;;;;;;;5.50;2.40;;;;;;;17.47;100.00;96970.50;5040213;28;20329;-52
2022/05/26 06:30:09;;;;;;;6.32;2.65;;;;;;;18.10;100.00;96973.91;5039187;28;20080;-54
2022/05/26 06:38:20;;;;;;;2.70;1.75;;;;;;;17.46;100.00;96979.50;5041711;28;20068;-53
2022/05/26 06:40:48;;;;;;;2.30;1.50;;;;;;;17.44;100.00;96978.84;5043451;28;20065;-55
2022/05/26 06:43:17;;;;;;;3.33;1.58;;;;;;;17.76;100.00;96988.53;5043911;28;20159;-53
2022/05/26 06:45:47;;;;;;;3.30;1.50;;;;;;;17.76;100.00;96988.53;5041167;28;20087;-53
2022/05/26 06:48:17;;;;;;;3.25;1.92;;;;;;;17.95;100.00;96995.22;5038658;28;20479;-55
2022/05/26 06:50:45;;;;;;;4.00;1.67;;;;;;;18.18;100.00;96990.72;5042371;28;20084;-55
2022/05/26 06:53:14;;;;;;;2.08;1.45;;;;;;;18.17;100.00;96989.06;5044710;28;20065;-56
2022/05/26 06:55:42;;;;;;;3.38;1.52;;;;;;;17.96;100.00;96992.41;5047293;28;20557;-56
2022/05/26 06:58:10;;;;;;;3.05;1.35;;;;;;;18.14;100.00;96992.09;5044527;28;20453;-53
2022/05/26 07:00:38;;;;;;;2.97;1.70;;;;;;;18.14;100.00;96988.59;5046789;28;20087;-54
2022/05/26 07:03:07;;;;;;;3.33;1.70;;;;;;;18.20;100.00;96994.06;5045039;28;20080;-52
2022/05/26 07:05:37;;;;;;;2.00;1.30;;;;;;;18.12;100.00;96990.59;5041892;28;20072;-50
2022/05/26 07:08:05;;;;;;;1.70;1.60;;;;;;;18.57;100.00;96992.38;5040587;28;20092;-57
2022/05/26 07:10:34;;;;;;;1.63;1.20;;;;;;;18.70;100.00;96984.56;5041903;28;20068;-55
2022/05/26 07:13:03;;;;;;;1.90;1.30;;;;;;;18.66;100.00;96990.47;5042433;28;20122;-52
2022/05/26 07:15:33;;;;;;;2.35;0.95;;;;;;;18.51;100.00;96987.75;5043440;28;20546;-55
2022/05/26 07:18:04;;;;;;;1.98;1.20;;;;;;;18.48;100.00;96985.47;5046395;28;20979;-48
2022/05/26 07:20:33;;;;;;;3.80;1.10;;;;;;;18.33;100.00;96989.94;5045186;28;20065;-53
2022/05/26 07:23:03;;;;;;;1.67;1.20;;;;;;;18.41;100.00;96985.34;5044571;28;20068;-53
2022/05/26 07:25:31;;;;;;;3.42;1.00;;;;;;;18.42;100.00;96980.84;5040985;28;20664;-53
2022/05/26 07:28:00;;;;;;;5.43;1.40;;;;;;;18.34;100.00;96988.91;5040230;28;20083;-50
2022/05/26 07:30:28;;;;;;;1.10;0.95;;;;;;;18.59;100.00;96994.88;5043216;28;20091;-50
2022/05/26 07:32:56;;;;;;;1.63;1.38;;;;;;;18.81;100.00;96983.31;5042956;28;20080;-56
2022/05/26 07:35:25;;;;;;;2.20;1.35;;;;;;;19.10;100.00;96993.19;5040936;28;20065;-54
2022/05/26 07:43:26;;;;;;;3.17;1.35;;;;;;;19.33;100.00;96989.56;5040036;28;20064;-52
2022/05/26 07:45:55;;;;;;;3.05;1.40;;;;;;;18.85;100.00;96984.59;5042734;28;20081;-51
2022/05/26 07:48:23;;;;;;;2.20;1.20;;;;;;;19.10;100.00;96995.88;5040933;28;21610;-51
2022/05/26 07:50:51;;;;;;;2.33;1.48;;;;;;;18.87;100.00;96990.59;5033303;28;20068;-56
2022/05/26 07:53:20;;;;;;;2.30;1.35;;;;;;;18.98;100.00;96991.97;5036577;28;20065;-53
2022/05/26 07:55:49;;;;;;;1.58;1.45;;;;;;;19.14;100.00;96996.31;5040885;28;20072;-49
2022/05/26 07:58:20;;;;;;;1.42;1.30;;;;;;;19.13;100.00;96990.16;5041050;28;20057;-48
2022/05/26 08:00:48;;;;;;;7.30;1.55;;;;;;;19.28;100.00;96994.66;5038885;28;20411;-52
2022/05/26 08:03:16;;;;;;;3.28;1.30;;;;;;;19.43;100.00;96990.09;5039554;28;20068;-54
2022/05/26 08:05:45;;;;;;;2.40;1.40;;;;;;;18.95;100.00;96990.50;5042082;28;20071;-50
2022/05/26 08:08:14;;;;;;;2.47;1.30;;;;;;;19.62;100.00;96989.50;5025871;28;20049;-53
2022/05/26 08:10:42;;;;;;;4.47;1.50;;;;;;;19.46;100.00;96987.06;5033120;28;20477;-52
2022/05/26 08:13:12;;;;;;;2.28;1.52;;;;;;;19.64;100.00;96994.69;5056839;28;20084;-54
2022/05/26 08:15:42;;;;;;;3.33;1.40;;;;;;;20.12;100.00;96995.00;5062139;28;20083;-53
2022/05/26 08:18:10;;;;;;;2.45;1.38;;;;;;;19.80;100.00;96997.16;5061633;28;21059;-53
2022/05/26 08:20:38;;;;;;;2.35;1.40;;;;;;;19.73;100.00;96996.25;5060856;28;20088;-55
2022/05/26 08:23:07;;;;;;;2.60;1.60;;;;;;;19.79;100.00;96997.34;5062443;28;20080;-53
2022/05/26 08:25:35;;;;;;;1.65;1.48;;;;;;;20.17;100.00;96997.94;5058374;28;20048;-54
2022/05/26 08:28:04;;;;;;;2.45;1.65;;;;;;;19.98;100.00;96991.34;5062308;28;20075;-51
2022/05/26 08:30:34;;;;;;;5.85;1.40;;;;;;;20.17;100.00;96991.75;5061267;28;20091;-54
2022/05/26 08:33:02;;;;;;;1.98;1.30;;;;;;;19.86;100.00;96991.03;5058454;28;20057;-55
2022/05/26 08:35:31;;;;;;;8.80;1.38;;;;;;;20.04;100.00;96987.94;5059446;28;20074;-54
2022/05/26 08:37:59;;;;;;;4.07;1.40;;;;;;;20.30;100.00;96983.81;5064731;28;20064;-54
2022/05/26 08:40:35;;;;;;;1.92;1.23;;;;;;;20.19;100.00;96982.50;5064234;28;20068;-51
2022/05/26 08:43:04;;;;;;;2.80;1.10;;;;;;;19.79;100.00;96997.34;5060050;28;20531;-50
2022/05/26 08:45:36;;;;;;;2.38;1.02;;;;;;;20.00;100.00;96993.88;5064259;28;20080;-50
2022/05/26 08:48:05;;;;;;;2.63;0.90;;;;;;;20.61;100.00;96991.50;5063615;28;20068;-49
2022/05/26 08:50:35;;;;;;;1.80;1.10;;;;;;;20.25;100.00;96984.41;5060851;28;20076;-53
2022/05/26 08:53:09;;;;;;;1.35;0.70;;;;;;;20.03;100.00;97004.19;5065044;28;20071;-53
2022/05/26 08:55:43;;;;;;;5.03;1.00;;;;;;;20.32;100.00;96993.31;5065222;28;20491;-48
2022/05/26 08:58:16;;;;;;;2.05;0.80;;;;;;;20.07;100.00;96998.25;5064583;28;20088;-49
2022/05/26 09:00:48;;;;;;;2.20;0.90;;;;;;;20.42;100.00;96993.00;5060902;28;20186;-53
2022/05/26 09:03:24;;;;;;;1.27;0.80;;;;;;;20.79;100.00;96996.41;5062040;28;20076;-50
2022/05/26 09:05:59;;;;;;;1.33;0.70;;;;;;;20.69;100.00;96993.25;5065795;28;20074;-51
2022/05/26 09:14:02;;;;;;;3.88;1.00;;;;;;;20.71;100.00;96996.53;5063963;28;20079;-54
2022/05/26 09:16:34;;;;;;;1.73;0.88;;;;;;;20.59;100.00;97002.44;5064096;28;20072;-51
2022/05/26 09:19:10;;;;;;;2.05;0.80;;;;;;;20.79;100.00;97004.44;5066117;28;20462;-55
2022/05/26 09:21:40;;;;;;;2.55;0.90;;;;;;;21.35;100.00;96990.16;5060540;28;20079;-56
2022/05/26 09:24:24;;;;;;;3.33;1.00;;;;;;;20.97;100.00;97003.94;5061120;28;20067;-52
2022/05/26 09:26:55;;;;;;;4.57;0.90;;;;;;;20.99;100.00;96997.38;5059673;28;20072;-48
2022/05/26 09:29:26;;;;;;;3.28;1.10;;;;;;;21.08;100.00;96996.16;5064270;28;20068;-54
2022/05/26 09:31:56;;;;;;;3.97;1.20;;;;;;;20.76;100.00;97005.66;5060645;28;20482;-55
2022/05/26 09:34:44;;;;;;;;;;;;;;;20.53;100.00;97005.91;5065240;28;20064;-51
2022/05/26 09:37:13;;;;;;;2.30;1.00;;;;;;;20.59;100.00;97007.81;5061153;28;19960;-54
2022/05/26 09:39:42;;;;;;;1.52;1.00;;;;;;;20.70;100.00;97002.94;5061391;28;20344;-55
2022/05/26 09:42:27;;;;;;;1.52;0.90;;;;;;;20.92;100.00;97001.88;5059029;28;20802;-58
2022/05/26 09:44:57;;;;;;;1.55;0.98;;;;;;;20.69;100.00;97003.97;5056009;28;20068;-57
2022/05/26 09:47:33;;;;;;;2.55;1.30;;;;;;;21.47;100.00;96989.38;5062576;28;20060;-53
2022/05/26 09:50:04;;;;;;;2.05;1.02;;;;;;;21.52;100.00;96991.47;5059967;28;20498;-51
2022/05/26 09:52:42;;;;;;;2.95;1.15;;;;;;;21.84;100.00;96995.28;5058658;28;20102;-50
2022/05/26 09:55:16;;;;;;;2.22;0.85;;;;;;;21.87;100.00;97010.16;5059865;28;20068;-50
2022/05/26 09:57:45;;;;;;;2.47;1.00;;;;;;;21.31;100.00;97009.31;5062462;28;20080;-50
2022/05/26 10:00:37;;;;;;;1.73;0.90;;;;;;;21.63;100.00;97003.47;5060370;28;20056;-50
2022/05/26 10:03:11;;;;;;;1.25;0.90;;;;;;;21.83;100.00;97009.75;5061274;28;20071;-51
2022/05/26 10:05:46;;;;;;;2.50;1.40;;;;;;;22.16;100.00;97020.59;5059437;28;20977;-55
2022/05/26 10:08:21;;;;;;;2.33;0.90;;;;;;;22.17;100.00;97016.06;5062567;28;20105;-54
2022/05/26 10:10:55;;;;;;;1.90;0.77;;;;;;;21.59;100.00;97008.41;5064394;28;20072;-53
2022/05/26 10:13:36;;;;;;;1.27;0.73;;;;;;;21.88;100.00;97011.81;5059166;28;20060;-50
2022/05/26 10:16:11;;;;;;;2.83;1.00;;;;;;;21.88;100.00;97009.13;5059270;28;20068;-53
2022/05/26 10:18:55;;;;;;;1.63;0.90;;;;;;;21.50;100.00;97012.28;5060116;28;20103;-51
2022/05/26 10:21:33;;;;;;;1.20;0.73;;;;;;;21.78;100.00;97021.09;5061427;28;20559;-51
2022/05/26 10:24:37;;;;;;;2.15;0.90;;;;;;;22.12;100.00;97013.09;5061392;28;20075;-51
2022/05/26 10:27:15;;;;;;;1.25;0.63;;;;;;;21.75;100.00;97016.13;5056645;28;20119;-51
2022/05/26 10:29:58;;;;;;;1.50;0.80;;;;;;;21.25;100.00;97015.44;5062379;28;20061;-51
2022/05/26 10:32:36;;;;;;;1.95;0.82;;;;;;;21.23;100.00;97017.53;5059023;28;20130;-51
2022/05/26 10:35:14;;;;;;;0.93;0.70;;;;;;;21.05;100.00;97009.97;5053015;28;20071;-55
2022/05/26 10:37:58;;;;;;;3.40;0.68;;;;;;;20.75;100.00;97020.09;5059228;28;20064;-53
2022/05/26 10:40:34;;;;;;;2.10;0.80;;;;;;;20.68;100.00;97021.06;5058495;28;20064;-53
2022/05/26 10:43:07;;;;;;;1.92;0.88;;;;;;;20.38;100.00;97011.31;5062176;28;20061;-52
2022/05/26 10:45:39;;;;;;;1.83;0.60;;;;;;;20.51;100.00;97013.31;5059839;28;20749;-52
2022/05/26 10:48:09;;;;;;;1.05;0.80;;;;;;;20.46;100.00;97007.66;5062698;28;20068;-50
2022/05/26 10:50:42;;;;;;;1.85;0.90;;;;;;;20.78;100.00;97014.31;5059948;28;20460;-55
2022/05/26 10:53:16;;;;;;;2.35;0.88;;;;;;;21.41;100.00;97013.50;5062402;28;20072;-55
2022/05/26 10:55:50;;;;;;;2.72;1.15;;;;;;;21.76;100.00;97015.09;5066810;28;20072;-53
2022/05/26 10:58:22;;;;;;;1.98;1.00;;;;;;;22.61;100.00;96998.50;5061005;28;20439;-51
2022/05/26 11:00:55;;;;;;;3.78;1.20;;;;;;;22.11;100.00;97012.28;5061519;28;20089;-56
2022/05/26 11:03:28;;;;;;;1.50;1.08;;;;;;;22.43;100.00;97002.63;5060231;28;20500;-50
2022/05/26 11:06:03;;;;;;;2.13;0.93;;;;;;;22.18;100.00;97001.56;5062256;28;20060;-55
2022/05/26 11:08:38;;;;;;;0.93;0.80;;;;;;;22.24;100.00;96993.53;5059346;28;20075;-50
2022/05/26 11:11:13;;;;;;;1.92;1.00;;;;;;;22.60;100.00;96996.84;5062450;28;20108;-55
2022/05/26 11:13:51;;;;;;;1.25;0.77;;;;;;;22.56;100.00;96995.59;5063103;28;20316;-53
2022/05/26 11:19:20;;;;;;;1.02;0.93;;;;;;;22.46;100.00;97001.41;5065207;28;20153;-51
2022/05/26 11:21:50;;;;;;;0.90;0.75;;;;;;;22.47;100.00;96994.97;5063347;28;20079;-56
2022/05/26 11:24:18;;;;;;;2.47;0.80;;;;;;;22.18;100.00;96994.34;5062131;28;20071;-54
2022/05/26 11:26:51;;;;;;;4.85;0.90;;;;;;;22.08;100.00;96993.88;5062534;28;20064;-57
2022/05/26 11:29:23;;;;;;;2.53;0.80;;;;;;;21.86;100.00;96992.41;5058471;28;20083;-53
2022/05/26 11:37:36;;;;;;;4.35;0.98;;;;;;;22.05;100.00;96994.28;5059606;28;20562;-51
2022/05/26 11:40:07;;;;;;;1.35;1.15;;;;;;;22.33;100.00;97004.88;5057467;28;20080;-57
2022/05/26 11:42:39;;;;;;;2.10;1.00;;;;;;;21.96;100.00;97004.41;5062277;28;20526;-53
2022/05/26 11:45:18;;;;;;;1.20;1.00;;;;;;;22.38;100.00;96988.16;5059256;28;20061;-52
2022/05/26 11:47:58;;;;;;;1.45;0.90;;;;;;;22.78;100.00;96986.31;5059800;28;20079;-53
2022/05/26 11:50:58;;;;;;;4.20;0.90;;;;;;;22.28;100.00;96981.34;5063792;28;20079;-54
2022/05/26 11:53:40;;;;;;;4.90;1.20;;;;;;;22.36;100.00;96980.28;5062329;28;20147;-52
2022/05/26 11:56:40;;;;;;;1.60;1.00;;;;;;;21.97;100.00;96989.94;5063325;28;20126;-53
2022/05/26 11:59:47;;;;;;;1.90;0.90;;;;;;;22.17;100.00;96984.63;5064102;28;20091;-49
2022/05/26 12:02:36;;;;;;;0.88;0.88;;;;;;;22.87;99.57;96978.81;5057490;28;20067;-54
2022/05/26 12:05:46;;;;;;;1.27;0.90;;;;;;;22.96;100.00;96980.28;5066284;28;20381;-55
2022/05/26 12:08:28;;;;;;;1.88;0.73;;;;;;;23.18;96.87;96981.69;5058503;28;20060;-56
2022/05/26 12:11:01;;;;;;;0.95;0.70;;;;;;;22.84;100.00;96973.88;5061468;28;20608;-56
2022/05/26 12:13:40;;;;;;;1.83;0.80;;;;;;;23.21;93.65;96975.06;5062363;28;20067;-55
2022/05/26 12:16:29;;;;;;;2.60;0.90;;;;;;;22.82;100.00;96971.41;5062269;28;20138;-52
2022/05/26 12:19:00;;;;;;;1.45;0.90;;;;;;;22.88;100.00;96967.88;5060376;28;20444;-53
2022/05/26 12:21:46;;;;;;;2.28;0.90;;;;;;;22.70;100.00;96973.88;5059538;28;20084;-52
2022/05/26 12:25:03;;;;;;;1.50;0.90;;;;;;;23.16;100.00;96974.88;5062445;28;20067;-50
2022/05/26 12:27:58;;;;;;;3.35;0.98;;;;;;;22.77;100.00;96965.81;5060085;28;20072;-55
2022/05/26 12:31:14;;;;;;;1.58;0.90;;;;;;;22.28;100.00;96973.28;5054781;28;20584;-53